sensor_id;sensor_type;location;lat;lon;timestamp;temperature;humidity
11540;DHT22;5826;54.756;9.192;2023-12-20T00:01:03;6.80;94.60
11540;DHT22;5826;54.756;9.192;2023-12-20T00:03:28;6.80;94.70
11540;DHT22;5826;54.756;9.192;2023-12-20T00:05:54;6.80;94.80
11540;DHT22;5826;54.756;9.192;2023-12-20T00:08:19;6.80;94.70
11540;DHT22;5826;54.756;9.192;2023-12-20T00:10:45;6.80;94.80
11540;DHT22;5826;54.756;9.192;2023-12-20T00:13:11;6.80;94.70
11540;DHT22;5826;54.756;9.192;2023-12-20T00:15:37;6.80;94.70
11540;DHT22;5826;54.756;9.192;2023-12-20T00:18:02;6.90;94.50
11540;DHT22;5826;54.756;9.192;2023-12-20T00:20:28;6.80;94.30
11540;DHT22;5826;54.756;9.192;2023-12-20T00:22:56;6.80;94.30
11540;DHT22;5826;54.756;9.192;2023-12-20T00:25:25;6.80;94.50
11540;DHT22;5826;54.756;9.192;2023-12-20T00:27:51;6.80;94.60
11540;DHT22;5826;54.756;9.192;2023-12-20T00:30:17;6.80;94.70
11540;DHT22;5826;54.756;9.192;2023-12-20T00:32:42;6.70;94.70
11540;DHT22;5826;54.756;9.192;2023-12-20T00:35:15;6.70;94.60
11540;DHT22;5826;54.756;9.192;2023-12-20T00:37:41;6.70;94.60
11540;DHT22;5826;54.756;9.192;2023-12-20T00:40:07;6.70;94.80
11540;DHT22;5826;54.756;9.192;2023-12-20T00:42:33;6.70;94.40
11540;DHT22;5826;54.756;9.192;2023-12-20T00:44:59;6.70;94.50
11540;DHT22;5826;54.756;9.192;2023-12-20T00:47:25;6.70;94.60
11540;DHT22;5826;54.756;9.192;2023-12-20T00:49:51;6.70;94.70
11540;DHT22;5826;54.756;9.192;2023-12-20T00:52:16;6.70;94.70
11540;DHT22;5826;54.756;9.192;2023-12-20T00:54:45;6.70;94.70
11540;DHT22;5826;54.756;9.192;2023-12-20T00:57:10;6.70;94.80
11540;DHT22;5826;54.756;9.192;2023-12-20T00:59:36;6.70;94.60
11540;DHT22;5826;54.756;9.192;2023-12-20T01:02:02;6.70;94.80
11540;DHT22;5826;54.756;9.192;2023-12-20T01:04:27;6.70;94.90
11540;DHT22;5826;54.756;9.192;2023-12-20T01:06:53;6.70;94.70
11540;DHT22;5826;54.756;9.192;2023-12-20T01:09:19;6.90;94.80
11540;DHT22;5826;54.756;9.192;2023-12-20T01:11:45;6.70;94.60
11540;DHT22;5826;54.756;9.192;2023-12-20T01:14:11;6.70;94.40
11540;DHT22;5826;54.756;9.192;2023-12-20T01:16:37;6.70;94.50
11540;DHT22;5826;54.756;9.192;2023-12-20T01:19:03;6.70;94.40
11540;DHT22;5826;54.756;9.192;2023-12-20T01:21:28;6.70;94.60
11540;DHT22;5826;54.756;9.192;2023-12-20T01:23:53;6.70;94.60
11540;DHT22;5826;54.756;9.192;2023-12-20T01:26:19;6.70;94.70
11540;DHT22;5826;54.756;9.192;2023-12-20T01:28:44;6.70;94.70
11540;DHT22;5826;54.756;9.192;2023-12-20T01:31:10;6.70;94.80
11540;DHT22;5826;54.756;9.192;2023-12-20T01:33:35;6.70;94.90
11540;DHT22;5826;54.756;9.192;2023-12-20T01:36:01;6.70;94.90
11540;DHT22;5826;54.756;9.192;2023-12-20T01:38:26;6.70;94.80
11540;DHT22;5826;54.756;9.192;2023-12-20T01:40:52;6.70;94.80
11540;DHT22;5826;54.756;9.192;2023-12-20T01:43:17;6.70;94.90
11540;DHT22;5826;54.756;9.192;2023-12-20T01:45:43;6.70;95.00
11540;DHT22;5826;54.756;9.192;2023-12-20T01:48:08;6.70;95.00
11540;DHT22;5826;54.756;9.192;2023-12-20T01:50:36;6.70;95.10
11540;DHT22;5826;54.756;9.192;2023-12-20T01:53:03;6.60;94.90
11540;DHT22;5826;54.756;9.192;2023-12-20T01:55:32;6.60;95.00
11540;DHT22;5826;54.756;9.192;2023-12-20T01:57:59;6.60;95.10
11540;DHT22;5826;54.756;9.192;2023-12-20T02:00:25;6.60;95.20
11540;DHT22;5826;54.756;9.192;2023-12-20T02:02:53;6.50;95.10
11540;DHT22;5826;54.756;9.192;2023-12-20T02:05:20;6.50;95.20
11540;DHT22;5826;54.756;9.192;2023-12-20T02:07:46;6.50;95.20
11540;DHT22;5826;54.756;9.192;2023-12-20T02:10:12;6.50;95.30
11540;DHT22;5826;54.756;9.192;2023-12-20T02:12:38;6.50;95.30
11540;DHT22;5826;54.756;9.192;2023-12-20T02:15:04;6.50;95.30
11540;DHT22;5826;54.756;9.192;2023-12-20T02:17:30;6.50;95.30
11540;DHT22;5826;54.756;9.192;2023-12-20T02:19:56;6.60;95.30
11540;DHT22;5826;54.756;9.192;2023-12-20T02:22:22;6.60;95.20
11540;DHT22;5826;54.756;9.192;2023-12-20T02:24:47;6.60;95.30
11540;DHT22;5826;54.756;9.192;2023-12-20T02:27:13;6.70;95.30
11540;DHT22;5826;54.756;9.192;2023-12-20T02:29:40;6.70;95.30
11540;DHT22;5826;54.756;9.192;2023-12-20T02:32:05;6.70;95.30
11540;DHT22;5826;54.756;9.192;2023-12-20T02:34:31;6.70;95.30
11540;DHT22;5826;54.756;9.192;2023-12-20T02:36:56;6.80;95.40
11540;DHT22;5826;54.756;9.192;2023-12-20T02:39:22;6.80;95.30
11540;DHT22;5826;54.756;9.192;2023-12-20T02:41:48;6.80;95.10
11540;DHT22;5826;54.756;9.192;2023-12-20T02:44:14;6.80;95.00
11540;DHT22;5826;54.756;9.192;2023-12-20T02:46:39;6.80;95.00
11540;DHT22;5826;54.756;9.192;2023-12-20T02:49:06;6.80;94.90
11540;DHT22;5826;54.756;9.192;2023-12-20T02:51:31;6.80;94.80
11540;DHT22;5826;54.756;9.192;2023-12-20T02:53:57;6.80;94.70
11540;DHT22;5826;54.756;9.192;2023-12-20T02:56:22;6.80;94.90
11540;DHT22;5826;54.756;9.192;2023-12-20T02:58:48;6.80;94.90
11540;DHT22;5826;54.756;9.192;2023-12-20T03:01:13;6.70;94.70
11540;DHT22;5826;54.756;9.192;2023-12-20T03:03:39;6.80;94.80
11540;DHT22;5826;54.756;9.192;2023-12-20T03:06:05;6.80;94.90
11540;DHT22;5826;54.756;9.192;2023-12-20T03:08:30;6.80;94.90
11540;DHT22;5826;54.756;9.192;2023-12-20T03:10:56;6.80;94.80
11540;DHT22;5826;54.756;9.192;2023-12-20T03:13:21;6.90;94.60
11540;DHT22;5826;54.756;9.192;2023-12-20T03:15:47;6.80;94.20
11540;DHT22;5826;54.756;9.192;2023-12-20T03:18:12;6.80;94.50
11540;DHT22;5826;54.756;9.192;2023-12-20T03:20:38;6.80;94.50
11540;DHT22;5826;54.756;9.192;2023-12-20T03:23:03;6.80;94.50
11540;DHT22;5826;54.756;9.192;2023-12-20T03:25:29;6.80;94.50
11540;DHT22;5826;54.756;9.192;2023-12-20T03:27:55;6.80;94.60
11540;DHT22;5826;54.756;9.192;2023-12-20T03:30:20;6.80;94.90
11540;DHT22;5826;54.756;9.192;2023-12-20T03:32:46;6.80;95.60
11540;DHT22;5826;54.756;9.192;2023-12-20T03:35:12;6.90;95.70
11540;DHT22;5826;54.756;9.192;2023-12-20T03:37:38;6.80;95.50
11540;DHT22;5826;54.756;9.192;2023-12-20T03:40:04;6.90;95.50
11540;DHT22;5826;54.756;9.192;2023-12-20T03:42:30;6.90;95.40
11540;DHT22;5826;54.756;9.192;2023-12-20T03:44:56;6.90;95.40
11540;DHT22;5826;54.756;9.192;2023-12-20T03:47:21;6.90;95.40
11540;DHT22;5826;54.756;9.192;2023-12-20T03:49:47;6.90;95.40
11540;DHT22;5826;54.756;9.192;2023-12-20T03:52:12;6.90;95.40
11540;DHT22;5826;54.756;9.192;2023-12-20T03:54:38;6.90;95.40
11540;DHT22;5826;54.756;9.192;2023-12-20T03:57:04;6.90;95.40
11540;DHT22;5826;54.756;9.192;2023-12-20T03:59:30;6.90;95.00
11540;DHT22;5826;54.756;9.192;2023-12-20T04:01:59;6.90;94.90
11540;DHT22;5826;54.756;9.192;2023-12-20T04:04:25;6.90;94.80
11540;DHT22;5826;54.756;9.192;2023-12-20T04:06:50;6.90;94.80
11540;DHT22;5826;54.756;9.192;2023-12-20T04:09:16;6.90;94.70
11540;DHT22;5826;54.756;9.192;2023-12-20T04:11:41;6.90;94.60
11540;DHT22;5826;54.756;9.192;2023-12-20T04:14:07;6.90;94.30
11540;DHT22;5826;54.756;9.192;2023-12-20T04:16:32;6.90;94.50
11540;DHT22;5826;54.756;9.192;2023-12-20T04:18:58;6.90;94.40
11540;DHT22;5826;54.756;9.192;2023-12-20T04:21:24;6.90;94.50
11540;DHT22;5826;54.756;9.192;2023-12-20T04:23:49;6.90;94.40
11540;DHT22;5826;54.756;9.192;2023-12-20T04:26:15;6.90;94.50
11540;DHT22;5826;54.756;9.192;2023-12-20T04:28:40;6.90;94.40
11540;DHT22;5826;54.756;9.192;2023-12-20T04:31:06;6.90;94.50
11540;DHT22;5826;54.756;9.192;2023-12-20T04:33:31;6.90;94.60
11540;DHT22;5826;54.756;9.192;2023-12-20T04:35:57;6.90;94.60
11540;DHT22;5826;54.756;9.192;2023-12-20T04:38:23;6.80;94.60
11540;DHT22;5826;54.756;9.192;2023-12-20T04:40:48;6.90;94.80
11540;DHT22;5826;54.756;9.192;2023-12-20T04:43:14;6.90;94.90
11540;DHT22;5826;54.756;9.192;2023-12-20T04:45:39;6.90;94.80
11540;DHT22;5826;54.756;9.192;2023-12-20T04:48:05;6.90;94.70
11540;DHT22;5826;54.756;9.192;2023-12-20T04:50:31;6.80;94.70
11540;DHT22;5826;54.756;9.192;2023-12-20T04:52:56;6.90;94.80
11540;DHT22;5826;54.756;9.192;2023-12-20T04:55:22;6.90;94.90
11540;DHT22;5826;54.756;9.192;2023-12-20T04:57:47;6.90;95.00
11540;DHT22;5826;54.756;9.192;2023-12-20T05:00:13;6.80;94.90
11540;DHT22;5826;54.756;9.192;2023-12-20T05:02:40;6.90;94.90
11540;DHT22;5826;54.756;9.192;2023-12-20T05:05:06;6.90;95.00
11540;DHT22;5826;54.756;9.192;2023-12-20T05:07:32;6.90;94.90
11540;DHT22;5826;54.756;9.192;2023-12-20T05:09:58;7.00;95.00
11540;DHT22;5826;54.756;9.192;2023-12-20T05:12:24;6.90;95.00
11540;DHT22;5826;54.756;9.192;2023-12-20T05:14:49;7.00;95.20
11540;DHT22;5826;54.756;9.192;2023-12-20T05:17:14;6.90;94.90
11540;DHT22;5826;54.756;9.192;2023-12-20T05:19:40;7.00;94.80
11540;DHT22;5826;54.756;9.192;2023-12-20T05:22:05;6.90;94.20
11540;DHT22;5826;54.756;9.192;2023-12-20T05:24:31;6.90;94.10
11540;DHT22;5826;54.756;9.192;2023-12-20T05:26:57;6.90;94.20
11540;DHT22;5826;54.756;9.192;2023-12-20T05:29:22;6.90;94.20
11540;DHT22;5826;54.756;9.192;2023-12-20T05:31:48;6.80;93.90
11540;DHT22;5826;54.756;9.192;2023-12-20T05:34:13;6.80;94.00
11540;DHT22;5826;54.756;9.192;2023-12-20T05:36:39;6.80;94.00
11540;DHT22;5826;54.756;9.192;2023-12-20T05:39:04;6.80;94.20
11540;DHT22;5826;54.756;9.192;2023-12-20T05:41:30;6.90;94.20
11540;DHT22;5826;54.756;9.192;2023-12-20T05:43:56;6.80;94.10
11540;DHT22;5826;54.756;9.192;2023-12-20T05:46:23;6.90;94.20
11540;DHT22;5826;54.756;9.192;2023-12-20T05:48:49;6.90;94.00
11540;DHT22;5826;54.756;9.192;2023-12-20T05:51:15;6.80;94.00
11540;DHT22;5826;54.756;9.192;2023-12-20T05:53:40;6.80;93.80
11540;DHT22;5826;54.756;9.192;2023-12-20T05:56:06;6.80;93.80
11540;DHT22;5826;54.756;9.192;2023-12-20T05:58:32;6.80;93.60
11540;DHT22;5826;54.756;9.192;2023-12-20T06:00:58;6.80;93.50
11540;DHT22;5826;54.756;9.192;2023-12-20T06:03:23;6.80;93.50
11540;DHT22;5826;54.756;9.192;2023-12-20T06:05:49;6.70;93.70
11540;DHT22;5826;54.756;9.192;2023-12-20T06:08:14;6.70;93.80
11540;DHT22;5826;54.756;9.192;2023-12-20T06:10:40;6.70;93.90
11540;DHT22;5826;54.756;9.192;2023-12-20T06:13:06;6.70;94.00
11540;DHT22;5826;54.756;9.192;2023-12-20T06:15:32;6.70;94.20
11540;DHT22;5826;54.756;9.192;2023-12-20T06:17:58;6.60;94.20
11540;DHT22;5826;54.756;9.192;2023-12-20T06:20:23;6.60;94.40
11540;DHT22;5826;54.756;9.192;2023-12-20T06:22:49;6.60;94.40
11540;DHT22;5826;54.756;9.192;2023-12-20T06:25:14;6.50;94.70
11540;DHT22;5826;54.756;9.192;2023-12-20T06:27:40;6.60;94.50
11540;DHT22;5826;54.756;9.192;2023-12-20T06:30:07;6.50;94.90
11540;DHT22;5826;54.756;9.192;2023-12-20T06:32:32;6.60;94.50
11540;DHT22;5826;54.756;9.192;2023-12-20T06:34:59;6.60;94.50
11540;DHT22;5826;54.756;9.192;2023-12-20T06:37:25;6.60;94.50
11540;DHT22;5826;54.756;9.192;2023-12-20T06:39:50;6.60;94.50
11540;DHT22;5826;54.756;9.192;2023-12-20T06:42:16;6.60;94.40
11540;DHT22;5826;54.756;9.192;2023-12-20T06:44:41;6.60;94.60
11540;DHT22;5826;54.756;9.192;2023-12-20T06:47:08;6.60;94.50
11540;DHT22;5826;54.756;9.192;2023-12-20T06:49:33;6.70;94.50
11540;DHT22;5826;54.756;9.192;2023-12-20T06:51:59;6.70;94.70
11540;DHT22;5826;54.756;9.192;2023-12-20T06:54:24;6.70;94.50
11540;DHT22;5826;54.756;9.192;2023-12-20T06:56:50;6.70;94.50
11540;DHT22;5826;54.756;9.192;2023-12-20T06:59:15;6.60;94.40
11540;DHT22;5826;54.756;9.192;2023-12-20T07:01:41;6.70;94.70
11540;DHT22;5826;54.756;9.192;2023-12-20T07:04:06;6.60;94.90
11540;DHT22;5826;54.756;9.192;2023-12-20T07:06:32;6.70;95.00
11540;DHT22;5826;54.756;9.192;2023-12-20T07:08:57;6.70;95.00
11540;DHT22;5826;54.756;9.192;2023-12-20T07:11:23;6.70;95.00
11540;DHT22;5826;54.756;9.192;2023-12-20T07:13:49;6.70;95.10
11540;DHT22;5826;54.756;9.192;2023-12-20T07:16:15;6.70;95.10
11540;DHT22;5826;54.756;9.192;2023-12-20T07:18:40;6.70;95.20
11540;DHT22;5826;54.756;9.192;2023-12-20T07:21:06;6.70;95.30
11540;DHT22;5826;54.756;9.192;2023-12-20T07:23:33;6.70;95.30
11540;DHT22;5826;54.756;9.192;2023-12-20T07:25:58;6.70;95.30
11540;DHT22;5826;54.756;9.192;2023-12-20T07:28:24;6.70;95.30
11540;DHT22;5826;54.756;9.192;2023-12-20T07:30:50;6.80;95.30
11540;DHT22;5826;54.756;9.192;2023-12-20T07:33:16;6.80;95.30
11540;DHT22;5826;54.756;9.192;2023-12-20T07:35:41;6.90;95.10
11540;DHT22;5826;54.756;9.192;2023-12-20T07:38:07;6.80;94.50
11540;DHT22;5826;54.756;9.192;2023-12-20T07:40:32;6.50;94.20
11540;DHT22;5826;54.756;9.192;2023-12-20T07:42:58;6.40;94.30
11540;DHT22;5826;54.756;9.192;2023-12-20T07:45:23;6.30;94.50
11540;DHT22;5826;54.756;9.192;2023-12-20T07:47:49;6.20;94.40
11540;DHT22;5826;54.756;9.192;2023-12-20T07:50:15;6.10;94.60
11540;DHT22;5826;54.756;9.192;2023-12-20T07:52:41;6.00;94.80
11540;DHT22;5826;54.756;9.192;2023-12-20T07:55:07;6.00;95.00
11540;DHT22;5826;54.756;9.192;2023-12-20T07:57:32;6.00;95.10
11540;DHT22;5826;54.756;9.192;2023-12-20T07:59:58;5.90;95.30
11540;DHT22;5826;54.756;9.192;2023-12-20T08:02:23;5.90;95.00
11540;DHT22;5826;54.756;9.192;2023-12-20T08:04:49;5.90;95.10
11540;DHT22;5826;54.756;9.192;2023-12-20T08:07:14;5.90;95.00
11540;DHT22;5826;54.756;9.192;2023-12-20T08:09:40;5.90;95.10
11540;DHT22;5826;54.756;9.192;2023-12-20T08:12:06;5.80;95.10
11540;DHT22;5826;54.756;9.192;2023-12-20T08:14:31;5.80;95.00
11540;DHT22;5826;54.756;9.192;2023-12-20T08:16:57;5.80;95.00
11540;DHT22;5826;54.756;9.192;2023-12-20T08:19:22;5.80;95.00
11540;DHT22;5826;54.756;9.192;2023-12-20T08:21:48;5.90;95.00
11540;DHT22;5826;54.756;9.192;2023-12-20T08:24:13;5.90;95.00
11540;DHT22;5826;54.756;9.192;2023-12-20T08:26:39;5.90;94.70
11540;DHT22;5826;54.756;9.192;2023-12-20T08:29:04;5.90;94.80
11540;DHT22;5826;54.756;9.192;2023-12-20T08:31:30;5.90;94.50
11540;DHT22;5826;54.756;9.192;2023-12-20T08:33:55;5.80;94.60
11540;DHT22;5826;54.756;9.192;2023-12-20T08:36:21;5.80;94.70
11540;DHT22;5826;54.756;9.192;2023-12-20T08:38:48;5.80;94.70
11540;DHT22;5826;54.756;9.192;2023-12-20T08:41:14;5.80;94.80
11540;DHT22;5826;54.756;9.192;2023-12-20T08:43:39;5.80;94.90
11540;DHT22;5826;54.756;9.192;2023-12-20T08:46:08;5.70;94.40
11540;DHT22;5826;54.756;9.192;2023-12-20T08:48:35;5.70;94.80
11540;DHT22;5826;54.756;9.192;2023-12-20T08:51:00;5.70;94.90
11540;DHT22;5826;54.756;9.192;2023-12-20T08:53:26;5.70;95.00
11540;DHT22;5826;54.756;9.192;2023-12-20T08:55:52;5.70;94.80
11540;DHT22;5826;54.756;9.192;2023-12-20T08:58:17;5.80;94.80
11540;DHT22;5826;54.756;9.192;2023-12-20T09:00:43;5.80;94.90
11540;DHT22;5826;54.756;9.192;2023-12-20T09:03:09;5.80;94.70
11540;DHT22;5826;54.756;9.192;2023-12-20T09:05:34;5.80;94.70
11540;DHT22;5826;54.756;9.192;2023-12-20T09:08:00;5.80;94.80
11540;DHT22;5826;54.756;9.192;2023-12-20T09:10:25;5.80;94.80
11540;DHT22;5826;54.756;9.192;2023-12-20T09:12:52;5.90;95.00
11540;DHT22;5826;54.756;9.192;2023-12-20T09:15:25;5.90;94.80
11540;DHT22;5826;54.756;9.192;2023-12-20T09:17:51;6.00;95.10
11540;DHT22;5826;54.756;9.192;2023-12-20T09:20:16;6.10;95.10
11540;DHT22;5826;54.756;9.192;2023-12-20T09:22:42;6.30;94.90
11540;DHT22;5826;54.756;9.192;2023-12-20T09:25:08;6.40;94.40
11540;DHT22;5826;54.756;9.192;2023-12-20T09:27:34;6.40;94.20
11540;DHT22;5826;54.756;9.192;2023-12-20T09:29:59;6.30;94.30
11540;DHT22;5826;54.756;9.192;2023-12-20T09:32:25;6.30;94.40
11540;DHT22;5826;54.756;9.192;2023-12-20T09:34:51;6.20;94.00
11540;DHT22;5826;54.756;9.192;2023-12-20T09:37:16;6.10;94.30
11540;DHT22;5826;54.756;9.192;2023-12-20T09:39:41;6.00;94.40
11540;DHT22;5826;54.756;9.192;2023-12-20T09:42:07;6.00;94.20
11540;DHT22;5826;54.756;9.192;2023-12-20T09:44:34;5.90;94.40
11540;DHT22;5826;54.756;9.192;2023-12-20T09:47:03;5.90;94.30
11540;DHT22;5826;54.756;9.192;2023-12-20T09:49:29;5.90;94.60
11540;DHT22;5826;54.756;9.192;2023-12-20T09:51:56;6.00;94.60
11540;DHT22;5826;54.756;9.192;2023-12-20T09:54:22;6.00;94.60
11540;DHT22;5826;54.756;9.192;2023-12-20T09:56:48;6.00;94.40
11540;DHT22;5826;54.756;9.192;2023-12-20T09:59:14;6.00;94.50
11540;DHT22;5826;54.756;9.192;2023-12-20T10:01:40;6.10;94.60
11540;DHT22;5826;54.756;9.192;2023-12-20T10:04:08;6.10;94.40
11540;DHT22;5826;54.756;9.192;2023-12-20T10:06:39;6.10;94.20
11540;DHT22;5826;54.756;9.192;2023-12-20T10:09:05;6.10;94.50
11540;DHT22;5826;54.756;9.192;2023-12-20T10:11:31;6.20;94.00
11540;DHT22;5826;54.756;9.192;2023-12-20T10:14:00;6.40;93.90
11540;DHT22;5826;54.756;9.192;2023-12-20T10:16:29;6.40;93.70
11540;DHT22;5826;54.756;9.192;2023-12-20T10:18:56;6.40;93.70
11540;DHT22;5826;54.756;9.192;2023-12-20T10:21:25;6.40;93.70
11540;DHT22;5826;54.756;9.192;2023-12-20T10:23:54;6.40;93.70
11540;DHT22;5826;54.756;9.192;2023-12-20T10:26:27;6.40;93.80
11540;DHT22;5826;54.756;9.192;2023-12-20T10:28:54;6.30;92.70
11540;DHT22;5826;54.756;9.192;2023-12-20T10:31:31;6.40;93.00
11540;DHT22;5826;54.756;9.192;2023-12-20T10:33:58;6.30;92.70
11540;DHT22;5826;54.756;9.192;2023-12-20T10:36:31;6.30;93.10
11540;DHT22;5826;54.756;9.192;2023-12-20T10:38:58;6.30;92.80
11540;DHT22;5826;54.756;9.192;2023-12-20T10:41:33;6.30;93.00
11540;DHT22;5826;54.756;9.192;2023-12-20T10:44:02;6.30;93.30
11540;DHT22;5826;54.756;9.192;2023-12-20T10:46:29;6.30;93.30
11540;DHT22;5826;54.756;9.192;2023-12-20T10:48:58;6.30;93.30
11540;DHT22;5826;54.756;9.192;2023-12-20T10:51:25;6.30;92.90
11540;DHT22;5826;54.756;9.192;2023-12-20T10:53:55;6.30;93.30
11540;DHT22;5826;54.756;9.192;2023-12-20T10:56:21;6.30;93.00
11540;DHT22;5826;54.756;9.192;2023-12-20T10:58:49;6.40;93.10
11540;DHT22;5826;54.756;9.192;2023-12-20T11:01:18;6.40;93.30
11540;DHT22;5826;54.756;9.192;2023-12-20T11:03:52;6.60;93.50
11540;DHT22;5826;54.756;9.192;2023-12-20T11:09:14;6.80;92.70
11540;DHT22;5826;54.756;9.192;2023-12-20T11:12:09;6.90;92.10
11540;DHT22;5826;54.756;9.192;2023-12-20T11:14:46;6.90;92.30
11540;DHT22;5826;54.756;9.192;2023-12-20T11:17:12;6.90;91.30
11540;DHT22;5826;54.756;9.192;2023-12-20T11:22:27;6.60;91.40
11540;DHT22;5826;54.756;9.192;2023-12-20T11:24:59;6.50;91.30
11540;DHT22;5826;54.756;9.192;2023-12-20T11:27:27;6.40;92.10
11540;DHT22;5826;54.756;9.192;2023-12-20T11:29:55;6.30;91.50
11540;DHT22;5826;54.756;9.192;2023-12-20T11:34:58;6.20;91.70
11540;DHT22;5826;54.756;9.192;2023-12-20T11:37:31;6.20;92.00
11540;DHT22;5826;54.756;9.192;2023-12-20T11:40:05;6.20;91.60
11540;DHT22;5826;54.756;9.192;2023-12-20T11:42:42;6.10;91.10
11540;DHT22;5826;54.756;9.192;2023-12-20T11:45:19;6.20;91.70
11540;DHT22;5826;54.756;9.192;2023-12-20T11:47:48;6.30;92.00
11540;DHT22;5826;54.756;9.192;2023-12-20T11:50:17;6.40;92.30
11540;DHT22;5826;54.756;9.192;2023-12-20T11:52:43;6.50;92.10
11540;DHT22;5826;54.756;9.192;2023-12-20T11:55:09;6.60;91.50
11540;DHT22;5826;54.756;9.192;2023-12-20T11:57:36;6.70;91.60
11540;DHT22;5826;54.756;9.192;2023-12-20T12:00:02;6.80;91.50
11540;DHT22;5826;54.756;9.192;2023-12-20T12:02:28;6.90;91.40
11540;DHT22;5826;54.756;9.192;2023-12-20T12:04:53;6.90;91.40
11540;DHT22;5826;54.756;9.192;2023-12-20T12:07:19;7.00;91.30
11540;DHT22;5826;54.756;9.192;2023-12-20T12:09:45;7.10;91.20
11540;DHT22;5826;54.756;9.192;2023-12-20T12:12:12;7.10;90.60
11540;DHT22;5826;54.756;9.192;2023-12-20T12:14:38;7.10;90.30
11540;DHT22;5826;54.756;9.192;2023-12-20T12:17:04;7.10;90.30
11540;DHT22;5826;54.756;9.192;2023-12-20T12:19:30;7.20;90.60
11540;DHT22;5826;54.756;9.192;2023-12-20T12:22:07;7.20;90.10
11540;DHT22;5826;54.756;9.192;2023-12-20T12:24:36;7.20;88.30
11540;DHT22;5826;54.756;9.192;2023-12-20T12:27:02;7.30;89.90
11540;DHT22;5826;54.756;9.192;2023-12-20T12:29:28;7.30;88.80
11540;DHT22;5826;54.756;9.192;2023-12-20T12:31:54;7.40;88.20
11540;DHT22;5826;54.756;9.192;2023-12-20T12:34:20;7.50;89.50
11540;DHT22;5826;54.756;9.192;2023-12-20T12:36:46;7.50;88.10
11540;DHT22;5826;54.756;9.192;2023-12-20T12:39:15;7.50;87.60
11540;DHT22;5826;54.756;9.192;2023-12-20T12:41:41;7.50;88.90
11540;DHT22;5826;54.756;9.192;2023-12-20T12:44:06;7.60;88.20
11540;DHT22;5826;54.756;9.192;2023-12-20T12:46:32;7.60;88.50
11540;DHT22;5826;54.756;9.192;2023-12-20T12:48:58;7.50;86.40
11540;DHT22;5826;54.756;9.192;2023-12-20T12:51:23;7.50;87.80
11540;DHT22;5826;54.756;9.192;2023-12-20T12:53:49;7.40;88.10
11540;DHT22;5826;54.756;9.192;2023-12-20T12:56:15;7.30;89.30
11540;DHT22;5826;54.756;9.192;2023-12-20T12:58:41;7.30;88.80
11540;DHT22;5826;54.756;9.192;2023-12-20T13:01:06;7.30;88.60
11540;DHT22;5826;54.756;9.192;2023-12-20T13:03:32;7.40;90.10
11540;DHT22;5826;54.756;9.192;2023-12-20T13:05:57;7.60;90.10
11540;DHT22;5826;54.756;9.192;2023-12-20T13:08:23;7.70;89.00
11540;DHT22;5826;54.756;9.192;2023-12-20T13:10:49;7.70;88.90
11540;DHT22;5826;54.756;9.192;2023-12-20T13:13:14;7.60;90.00
11540;DHT22;5826;54.756;9.192;2023-12-20T13:15:40;7.60;90.00
11540;DHT22;5826;54.756;9.192;2023-12-20T13:18:06;7.50;90.20
11540;DHT22;5826;54.756;9.192;2023-12-20T13:20:32;7.60;90.30
11540;DHT22;5826;54.756;9.192;2023-12-20T13:22:58;7.60;90.20
11540;DHT22;5826;54.756;9.192;2023-12-20T13:25:24;7.60;89.50
11540;DHT22;5826;54.756;9.192;2023-12-20T13:27:49;7.60;88.00
11540;DHT22;5826;54.756;9.192;2023-12-20T13:30:16;7.60;88.90
11540;DHT22;5826;54.756;9.192;2023-12-20T13:32:42;7.50;88.90
11540;DHT22;5826;54.756;9.192;2023-12-20T13:35:08;7.50;90.10
11540;DHT22;5826;54.756;9.192;2023-12-20T13:37:34;7.40;90.00
11540;DHT22;5826;54.756;9.192;2023-12-20T13:40:00;7.40;89.40
11540;DHT22;5826;54.756;9.192;2023-12-20T13:42:25;7.40;90.40
11540;DHT22;5826;54.756;9.192;2023-12-20T13:44:53;7.40;90.10
11540;DHT22;5826;54.756;9.192;2023-12-20T13:47:18;7.40;89.20
11540;DHT22;5826;54.756;9.192;2023-12-20T13:49:44;7.40;89.70
11540;DHT22;5826;54.756;9.192;2023-12-20T13:52:10;7.20;88.90
11540;DHT22;5826;54.756;9.192;2023-12-20T13:54:37;7.20;90.70
11540;DHT22;5826;54.756;9.192;2023-12-20T13:57:03;7.10;90.30
11540;DHT22;5826;54.756;9.192;2023-12-20T13:59:28;7.10;90.00
11540;DHT22;5826;54.756;9.192;2023-12-20T14:01:54;7.00;90.40
11540;DHT22;5826;54.756;9.192;2023-12-20T14:04:20;7.00;90.30
11540;DHT22;5826;54.756;9.192;2023-12-20T14:06:47;7.00;90.50
11540;DHT22;5826;54.756;9.192;2023-12-20T14:09:12;7.00;90.60
11540;DHT22;5826;54.756;9.192;2023-12-20T14:11:38;6.90;90.80
11540;DHT22;5826;54.756;9.192;2023-12-20T14:14:07;6.90;90.40
11540;DHT22;5826;54.756;9.192;2023-12-20T14:16:33;6.90;90.40
11540;DHT22;5826;54.756;9.192;2023-12-20T14:18:58;6.80;90.00
11540;DHT22;5826;54.756;9.192;2023-12-20T14:21:24;6.80;90.30
11540;DHT22;5826;54.756;9.192;2023-12-20T14:23:50;6.80;90.50
11540;DHT22;5826;54.756;9.192;2023-12-20T14:26:15;6.80;90.50
11540;DHT22;5826;54.756;9.192;2023-12-20T14:28:41;6.80;90.70
11540;DHT22;5826;54.756;9.192;2023-12-20T14:31:07;6.70;90.60
11540;DHT22;5826;54.756;9.192;2023-12-20T14:33:34;6.80;91.20
11540;DHT22;5826;54.756;9.192;2023-12-20T14:35:59;6.80;90.80
11540;DHT22;5826;54.756;9.192;2023-12-20T14:38:25;6.70;90.50
11540;DHT22;5826;54.756;9.192;2023-12-20T14:40:51;6.80;90.70
11540;DHT22;5826;54.756;9.192;2023-12-20T14:43:16;6.90;90.70
11540;DHT22;5826;54.756;9.192;2023-12-20T14:45:42;6.70;90.80
11540;DHT22;5826;54.756;9.192;2023-12-20T14:48:08;6.70;90.70
11540;DHT22;5826;54.756;9.192;2023-12-20T14:50:33;6.70;90.80
11540;DHT22;5826;54.756;9.192;2023-12-20T14:52:59;6.70;90.80
11540;DHT22;5826;54.756;9.192;2023-12-20T14:55:25;6.70;90.70
11540;DHT22;5826;54.756;9.192;2023-12-20T14:57:52;6.60;90.70
11540;DHT22;5826;54.756;9.192;2023-12-20T15:00:18;6.60;90.70
11540;DHT22;5826;54.756;9.192;2023-12-20T15:02:45;6.50;90.40
11540;DHT22;5826;54.756;9.192;2023-12-20T15:05:10;6.50;90.60
11540;DHT22;5826;54.756;9.192;2023-12-20T15:07:36;6.40;90.70
11540;DHT22;5826;54.756;9.192;2023-12-20T15:10:02;6.40;91.40
11540;DHT22;5826;54.756;9.192;2023-12-20T15:12:28;6.40;91.20
11540;DHT22;5826;54.756;9.192;2023-12-20T15:14:54;6.40;91.20
11540;DHT22;5826;54.756;9.192;2023-12-20T15:17:19;6.40;91.30
11540;DHT22;5826;54.756;9.192;2023-12-20T15:19:45;6.40;90.90
11540;DHT22;5826;54.756;9.192;2023-12-20T15:22:10;6.40;91.50
11540;DHT22;5826;54.756;9.192;2023-12-20T15:24:39;6.40;91.10
11540;DHT22;5826;54.756;9.192;2023-12-20T15:27:06;6.40;91.70
11540;DHT22;5826;54.756;9.192;2023-12-20T15:29:32;6.40;92.20
11540;DHT22;5826;54.756;9.192;2023-12-20T15:31:57;6.40;92.30
11540;DHT22;5826;54.756;9.192;2023-12-20T15:34:23;6.30;92.20
11540;DHT22;5826;54.756;9.192;2023-12-20T15:36:48;6.40;92.00
11540;DHT22;5826;54.756;9.192;2023-12-20T15:39:14;6.30;92.20
11540;DHT22;5826;54.756;9.192;2023-12-20T15:41:40;6.30;92.40
11540;DHT22;5826;54.756;9.192;2023-12-20T15:44:05;6.20;92.20
11540;DHT22;5826;54.756;9.192;2023-12-20T15:46:31;6.20;92.10
11540;DHT22;5826;54.756;9.192;2023-12-20T15:48:57;6.20;92.30
11540;DHT22;5826;54.756;9.192;2023-12-20T15:51:22;6.20;92.20
11540;DHT22;5826;54.756;9.192;2023-12-20T15:53:49;6.20;92.00
11540;DHT22;5826;54.756;9.192;2023-12-20T15:56:15;6.20;92.30
11540;DHT22;5826;54.756;9.192;2023-12-20T15:58:41;6.20;92.20
11540;DHT22;5826;54.756;9.192;2023-12-20T16:01:06;6.10;91.90
11540;DHT22;5826;54.756;9.192;2023-12-20T16:03:32;6.10;92.00